createdAt,value
2018-09-18T00:00:08.655Z,9.10
2018-09-18T00:02:37.005Z,8.00
2018-09-18T00:05:05.404Z,8.53
2018-09-18T00:07:33.775Z,9.00
2018-09-18T00:10:02.104Z,8.43
2018-09-18T00:12:30.485Z,9.70
2018-09-18T00:14:58.917Z,9.00
2018-09-18T00:17:27.258Z,8.27
2018-09-18T00:19:55.566Z,8.87
2018-09-18T00:22:23.946Z,9.80
2018-09-18T00:24:52.239Z,8.03
2018-09-18T00:27:20.563Z,8.27
2018-09-18T00:29:48.951Z,9.17
2018-09-18T00:32:17.322Z,8.30
2018-09-18T00:34:45.679Z,8.67
2018-09-18T00:37:14.023Z,8.90
2018-09-18T00:39:42.376Z,8.60
2018-09-18T00:42:10.734Z,8.03
2018-09-18T00:44:39.111Z,8.70
2018-09-18T00:47:07.436Z,8.70
2018-09-18T00:49:35.772Z,8.90
2018-09-18T00:52:04.142Z,9.30
2018-09-18T00:54:32.470Z,8.33
2018-09-18T00:57:00.837Z,9.30
2018-09-18T00:59:29.179Z,8.87
2018-09-18T01:01:57.495Z,9.07
2018-09-18T01:04:25.903Z,8.30
2018-09-18T01:06:54.254Z,9.10
2018-09-18T01:09:22.581Z,9.07
2018-09-18T01:11:50.953Z,8.03
2018-09-18T01:14:19.249Z,8.50
2018-09-18T01:16:47.608Z,8.60
2018-09-18T01:19:15.951Z,9.70
2018-09-18T01:21:44.317Z,8.63
2018-09-18T01:24:12.662Z,9.17
2018-09-18T01:26:41.015Z,8.50
2018-09-18T01:29:09.397Z,8.57
2018-09-18T01:31:37.709Z,8.90
2018-09-18T01:34:06.091Z,9.17
2018-09-18T01:36:34.425Z,9.07
2018-09-18T01:39:02.838Z,8.77
2018-09-18T01:41:31.184Z,8.93
2018-09-18T01:43:59.520Z,8.70
2018-09-18T01:46:27.867Z,9.20
2018-09-18T01:48:56.209Z,10.20
2018-09-18T01:51:24.589Z,8.67
2018-09-18T01:53:52.937Z,9.33
2018-09-18T01:56:21.283Z,9.23
2018-09-18T01:58:49.644Z,9.23
2018-09-18T02:01:18.091Z,9.70
2018-09-18T02:03:46.422Z,9.70
2018-09-18T02:06:14.798Z,9.20
2018-09-18T02:08:43.219Z,9.30
2018-09-18T02:11:11.630Z,9.20
2018-09-18T02:13:40.024Z,8.77
2018-09-18T02:16:08.472Z,10.03
2018-09-18T02:18:36.840Z,9.03
2018-09-18T02:21:05.246Z,9.77
2018-09-18T02:23:33.624Z,9.07
2018-09-18T02:26:02.036Z,9.37
2018-09-18T02:28:30.386Z,9.07
2018-09-18T02:30:58.728Z,9.13
2018-09-18T02:33:27.069Z,9.30
2018-09-18T02:35:55.480Z,10.40
2018-09-18T02:38:23.796Z,9.97
2018-09-18T02:40:52.126Z,10.13
2018-09-18T02:43:20.482Z,10.67
2018-09-18T02:45:48.915Z,10.30
2018-09-18T02:48:17.289Z,10.40
2018-09-18T02:50:45.608Z,10.13
2018-09-18T02:53:13.988Z,9.90
2018-09-18T02:55:42.348Z,10.30
2018-09-18T02:58:10.696Z,10.03
2018-09-18T03:00:39.057Z,10.20
2018-09-18T03:03:07.648Z,9.57
2018-09-18T03:05:35.964Z,9.90
2018-09-18T03:08:04.367Z,10.00
2018-09-18T03:10:32.692Z,10.20
2018-09-18T03:13:01.040Z,9.57
2018-09-18T03:15:29.366Z,10.30
2018-09-18T03:17:57.693Z,10.10
2018-09-18T03:20:26.067Z,10.37
2018-09-18T03:22:54.439Z,10.90
2018-09-18T03:25:22.791Z,10.47
2018-09-18T03:27:51.157Z,10.10
2018-09-18T03:30:19.551Z,10.13
2018-09-18T03:32:47.951Z,10.60
2018-09-18T03:35:16.345Z,10.10
2018-09-18T03:37:44.697Z,9.80
2018-09-18T03:40:13.037Z,9.93
2018-09-18T03:42:41.394Z,11.10
2018-09-18T03:45:09.747Z,10.70
2018-09-18T03:47:38.109Z,10.53
2018-09-18T03:50:06.423Z,10.97
2018-09-18T03:52:34.768Z,10.83
2018-09-18T03:55:03.132Z,10.47
2018-09-18T03:57:31.545Z,10.57
2018-09-18T03:59:59.921Z,10.17
2018-09-18T04:02:28.271Z,10.30
2018-09-18T04:04:56.628Z,11.63
2018-09-18T04:07:24.954Z,10.77
2018-09-18T04:09:53.296Z,11.20
2018-09-18T04:12:21.677Z,11.00
2018-09-18T04:14:50.030Z,11.20
2018-09-18T04:17:18.493Z,10.60
2018-09-18T04:19:46.850Z,11.07
2018-09-18T04:22:15.176Z,11.00
2018-09-18T04:24:43.540Z,10.60
2018-09-18T04:27:11.892Z,10.80
2018-09-18T04:29:40.264Z,10.97
2018-09-18T04:32:08.577Z,10.20
2018-09-18T04:34:36.937Z,10.73
2018-09-18T04:37:05.320Z,10.30
2018-09-18T04:39:33.639Z,10.20
2018-09-18T04:42:02.060Z,10.33
2018-09-18T04:44:30.392Z,10.37
2018-09-18T04:46:58.743Z,10.47
2018-09-18T04:49:27.086Z,11.77
2018-09-18T04:51:55.450Z,10.50
2018-09-18T04:54:23.847Z,10.70
2018-09-18T04:56:52.208Z,11.37
2018-09-18T04:59:20.542Z,10.70
2018-09-18T05:01:48.912Z,10.77
2018-09-18T05:04:17.313Z,11.17
2018-09-18T05:06:45.709Z,11.43
2018-09-18T05:09:14.161Z,10.70
2018-09-18T05:11:42.452Z,10.57
2018-09-18T05:14:10.808Z,11.13
2018-09-18T05:16:39.204Z,11.00
2018-09-18T05:19:07.532Z,12.33
2018-09-18T05:21:35.975Z,10.77
2018-09-18T05:24:04.296Z,11.07
2018-09-18T05:26:32.656Z,10.93
2018-09-18T05:29:01.009Z,10.53
2018-09-18T05:31:29.348Z,11.30
2018-09-18T05:33:57.691Z,10.43
2018-09-18T05:36:26.067Z,11.20
2018-09-18T05:38:54.474Z,10.33
2018-09-18T05:41:22.868Z,11.30
2018-09-18T05:43:51.300Z,11.97
2018-09-18T05:46:19.672Z,10.03
2018-09-18T05:48:48.029Z,15.80
2018-09-18T05:51:16.372Z,24.10
2018-09-18T05:53:44.694Z,27.07
2018-09-18T05:56:13.056Z,27.20
2018-09-18T05:58:41.398Z,22.13
2018-09-18T06:01:09.733Z,20.30
2018-09-18T06:03:38.155Z,16.23
2018-09-18T06:06:06.244Z,14.87
2018-09-18T06:08:34.590Z,12.80
2018-09-18T06:11:02.912Z,11.97
2018-09-18T06:13:31.528Z,12.53
2018-09-18T06:15:59.899Z,12.07
2018-09-18T06:18:28.249Z,11.40
2018-09-18T06:20:56.611Z,11.90
2018-09-18T06:23:24.957Z,12.50
2018-09-18T06:25:53.307Z,12.30
2018-09-18T06:28:21.702Z,11.60
2018-09-18T06:30:50.101Z,11.73
2018-09-18T06:33:18.480Z,11.87
2018-09-18T06:35:46.846Z,12.40
2018-09-18T06:38:15.191Z,10.83
2018-09-18T06:40:43.528Z,12.70
2018-09-18T06:43:11.876Z,12.27
2018-09-18T06:45:40.198Z,12.27
2018-09-18T06:48:08.607Z,12.80
2018-09-18T06:50:36.912Z,12.90
2018-09-18T06:53:05.228Z,14.47
2018-09-18T06:55:33.580Z,14.50
2018-09-18T06:58:01.935Z,13.70
2018-09-18T07:00:30.278Z,14.27
2018-09-18T07:02:58.609Z,12.73
2018-09-18T07:05:27.005Z,13.20
2018-09-18T07:07:55.310Z,13.17
2018-09-18T07:10:23.660Z,13.53
2018-09-18T07:12:52.022Z,13.10
2018-09-18T07:15:20.384Z,12.67
2018-09-18T07:17:48.771Z,12.20
2018-09-18T07:20:17.145Z,12.73
2018-09-18T07:22:45.480Z,13.57
2018-09-18T07:25:13.808Z,12.40
2018-09-18T07:27:42.148Z,11.87
2018-09-18T07:30:10.625Z,12.93
2018-09-18T07:32:38.947Z,12.83
2018-09-18T07:35:07.387Z,11.50
2018-09-18T07:37:35.760Z,11.40
2018-09-18T07:40:04.132Z,12.67
2018-09-18T07:42:32.461Z,11.27
2018-09-18T07:45:00.869Z,12.50
2018-09-18T07:47:29.238Z,11.53
2018-09-18T07:49:57.559Z,12.23
2018-09-18T07:52:25.896Z,11.20
2018-09-18T07:54:54.218Z,11.33
2018-09-18T07:57:22.588Z,10.60
2018-09-18T07:59:50.919Z,11.30
2018-09-18T08:02:19.252Z,12.30
2018-09-18T08:04:47.630Z,10.57
2018-09-18T08:07:16.016Z,11.10
2018-09-18T08:09:44.329Z,11.30
2018-09-18T08:12:12.664Z,11.10
2018-09-18T08:14:40.977Z,11.53
2018-09-18T08:17:09.337Z,11.40
2018-09-18T08:19:37.766Z,11.00
2018-09-18T08:22:06.095Z,11.70
2018-09-18T08:24:34.361Z,10.50
2018-09-18T08:27:02.762Z,11.73
2018-09-18T08:29:31.113Z,11.60
2018-09-18T08:31:59.452Z,10.97
2018-09-18T08:34:27.817Z,11.80
2018-09-18T08:36:56.176Z,10.27
2018-09-18T08:39:24.516Z,11.70
2018-09-18T08:41:52.810Z,10.37
2018-09-18T08:44:21.188Z,9.53
2018-09-18T08:46:49.529Z,9.77
2018-09-18T08:49:17.887Z,11.40
2018-09-18T08:51:46.246Z,10.63
2018-09-18T08:54:14.512Z,9.97
2018-09-18T08:56:42.952Z,9.77
2018-09-18T08:59:11.311Z,9.80
2018-09-18T09:01:39.687Z,10.40
2018-09-18T09:04:08.049Z,9.17
2018-09-18T09:06:36.417Z,9.93
2018-09-18T09:09:08.766Z,9.70
2018-09-18T09:11:37.117Z,9.87
2018-09-18T09:14:05.472Z,9.97
2018-09-18T09:16:33.856Z,12.07
2018-09-18T09:19:02.590Z,9.80
2018-09-18T09:21:31.031Z,9.50
2018-09-18T09:23:59.370Z,9.87
2018-09-18T09:26:27.794Z,9.33
2018-09-18T09:28:56.082Z,9.50
2018-09-18T09:31:24.501Z,12.20
2018-09-18T09:33:52.893Z,10.83
2018-09-18T09:36:21.221Z,9.00
2018-09-18T09:38:49.721Z,21.20
2018-09-18T09:41:18.068Z,10.80
2018-09-18T09:43:46.406Z,10.73
2018-09-18T09:46:14.777Z,12.03
2018-09-18T09:48:43.151Z,8.70
2018-09-18T09:51:11.510Z,8.53
2018-09-18T09:53:39.865Z,9.30
2018-09-18T09:56:08.212Z,9.30
2018-09-18T09:58:36.589Z,8.70
2018-09-18T10:01:10.368Z,9.13
2018-09-18T10:03:38.814Z,8.77
2018-09-18T10:06:07.215Z,8.33
2018-09-18T10:08:35.508Z,8.93
2018-09-18T10:11:03.945Z,8.40
2018-09-18T10:13:32.212Z,8.07
2018-09-18T10:16:00.526Z,8.37
2018-09-18T10:18:28.852Z,7.97
2018-09-18T10:20:57.177Z,8.10
2018-09-18T10:23:25.564Z,8.47
2018-09-18T10:25:53.918Z,7.73
2018-09-18T10:28:22.222Z,8.10
2018-09-18T10:30:50.542Z,8.20
2018-09-18T10:33:18.924Z,8.30
2018-09-18T10:35:47.344Z,8.13
2018-09-18T10:38:15.733Z,7.60
2018-09-18T10:40:44.051Z,7.90
2018-09-18T10:43:12.392Z,7.30
2018-09-18T10:45:40.735Z,7.40
2018-09-18T10:48:09.069Z,7.50
2018-09-18T10:50:37.555Z,7.20
2018-09-18T10:53:06.022Z,7.20
2018-09-18T10:55:34.414Z,8.30
2018-09-18T10:58:02.769Z,7.20
2018-09-18T11:00:31.132Z,6.93
2018-09-18T11:02:59.455Z,7.43
2018-09-18T11:05:27.819Z,7.17
2018-09-18T11:07:56.204Z,7.20
2018-09-18T11:10:24.478Z,7.30
2018-09-18T11:12:53.242Z,6.60
2018-09-18T11:15:21.686Z,6.30
2018-09-18T11:17:50.081Z,6.47
2018-09-18T11:20:18.542Z,5.97
2018-09-18T11:22:46.777Z,5.80
2018-09-18T11:25:15.170Z,5.43
2018-09-18T11:27:43.589Z,5.97
2018-09-18T11:30:11.919Z,5.50
2018-09-18T11:32:40.419Z,5.47
2018-09-18T11:35:08.713Z,5.97
2018-09-18T11:37:37.206Z,5.90
2018-09-18T11:40:05.612Z,5.60
2018-09-18T11:42:34.055Z,5.80
2018-09-18T11:45:02.444Z,6.10
2018-09-18T11:47:30.833Z,4.97
2018-09-18T11:49:59.438Z,5.50
2018-09-18T11:52:27.826Z,5.40
2018-09-18T11:54:56.280Z,4.90
2018-09-18T11:57:24.828Z,5.70
2018-09-18T11:59:53.198Z,5.67
2018-09-18T12:02:21.596Z,4.73
2018-09-18T12:04:50.257Z,5.23
2018-09-18T12:07:18.528Z,5.60
2018-09-18T12:09:47.189Z,5.50
2018-09-18T12:12:15.604Z,5.53
2018-09-18T12:14:44.013Z,5.20
2018-09-18T12:17:12.419Z,5.97
2018-09-18T12:19:40.771Z,5.90
2018-09-18T12:22:09.223Z,5.63
2018-09-18T12:24:37.633Z,5.67
2018-09-18T12:27:06.038Z,6.57
2018-09-18T12:29:34.542Z,6.07
2018-09-18T12:32:02.936Z,6.23
2018-09-18T12:34:31.260Z,5.50
2018-09-18T12:36:59.620Z,5.97
2018-09-18T12:39:27.961Z,5.77
2018-09-18T12:41:56.748Z,6.13
2018-09-18T12:44:25.000Z,5.37
2018-09-18T12:46:53.381Z,5.80
2018-09-18T12:49:21.822Z,5.30
2018-09-18T12:51:50.080Z,6.10
2018-09-18T12:54:18.646Z,5.73
2018-09-18T12:56:46.994Z,5.60
2018-09-18T12:59:15.453Z,5.67
2018-09-18T13:01:43.763Z,6.10
2018-09-18T13:04:12.277Z,6.17
2018-09-18T13:06:40.656Z,5.43
2018-09-18T13:09:10.732Z,5.37
2018-09-18T13:11:39.250Z,5.30
2018-09-18T13:14:07.876Z,5.67
2018-09-18T13:16:36.200Z,5.83
2018-09-18T13:19:04.567Z,5.67
2018-09-18T13:21:32.950Z,5.80
2018-09-18T13:24:01.356Z,5.30
2018-09-18T13:26:29.729Z,5.83
2018-09-18T13:28:58.097Z,5.50
2018-09-18T13:31:26.471Z,5.77
2018-09-18T13:33:54.868Z,5.53
2018-09-18T13:36:23.243Z,5.23
2018-09-18T13:38:51.837Z,5.60
2018-09-18T13:41:20.369Z,6.07
2018-09-18T13:43:48.730Z,6.47
2018-09-18T13:46:17.216Z,5.43
2018-09-18T13:48:45.643Z,5.73
2018-09-18T13:51:13.984Z,5.90
2018-09-18T13:53:42.381Z,5.70
2018-09-18T13:56:10.851Z,5.60
2018-09-18T13:58:39.217Z,5.73
2018-09-18T14:01:07.677Z,5.80
2018-09-18T14:03:35.960Z,5.50
2018-09-18T14:06:04.371Z,5.50
2018-09-18T14:08:32.717Z,5.23
2018-09-18T14:11:01.145Z,5.20
2018-09-18T14:13:29.568Z,5.67
2018-09-18T14:15:58.034Z,5.83
2018-09-18T14:18:26.503Z,5.40
2018-09-18T14:20:54.920Z,5.00
2018-09-18T14:23:23.278Z,5.40
2018-09-18T14:25:51.661Z,5.33
2018-09-18T14:28:20.029Z,5.30
2018-09-18T14:30:48.441Z,5.37
2018-09-18T14:33:16.852Z,5.90
2018-09-18T14:35:45.190Z,5.40
2018-09-18T14:38:13.523Z,5.77
2018-09-18T14:40:41.971Z,5.50
2018-09-18T14:43:10.432Z,5.30
2018-09-18T14:45:38.795Z,5.63
2018-09-18T14:48:07.120Z,5.53
2018-09-18T14:50:35.761Z,5.60
2018-09-18T14:53:04.260Z,5.97
2018-09-18T14:55:32.720Z,5.93
2018-09-18T14:58:01.477Z,5.77
2018-09-18T15:00:29.892Z,6.03
2018-09-18T15:02:58.250Z,5.93
2018-09-18T15:05:26.674Z,5.57
2018-09-18T15:07:55.068Z,6.30
2018-09-18T15:10:23.469Z,5.73
2018-09-18T15:12:51.882Z,6.60
2018-09-18T15:15:20.317Z,6.73
2018-09-18T15:17:48.639Z,7.70
2018-09-18T15:20:16.975Z,7.83
2018-09-18T15:22:45.771Z,7.97
2018-09-18T15:25:14.209Z,8.27
2018-09-18T15:27:42.696Z,8.90
2018-09-18T15:30:10.970Z,8.40
2018-09-18T15:32:39.360Z,8.27
2018-09-18T15:35:07.792Z,8.27
2018-09-18T15:37:36.218Z,8.50
2018-09-18T15:40:04.721Z,8.40
2018-09-18T15:42:33.020Z,8.23
2018-09-18T15:45:01.413Z,7.87
2018-09-18T15:47:29.819Z,7.67
2018-09-18T15:49:58.148Z,8.40
2018-09-18T15:52:26.544Z,7.17
2018-09-18T15:54:54.897Z,7.50
2018-09-18T15:57:23.266Z,7.77
2018-09-18T15:59:51.580Z,7.27
2018-09-18T16:02:19.907Z,7.33
2018-09-18T16:04:48.282Z,7.23
2018-09-18T16:07:16.646Z,7.70
2018-09-18T16:09:45.048Z,7.50
2018-09-18T16:12:13.428Z,8.07
2018-09-18T16:14:41.933Z,7.80
2018-09-18T16:17:10.238Z,7.50
2018-09-18T16:19:38.650Z,8.17
2018-09-18T16:22:07.060Z,7.90
2018-09-18T16:24:35.436Z,7.63
2018-09-18T16:27:03.839Z,8.57
2018-09-18T16:29:32.186Z,7.33
2018-09-18T16:32:00.578Z,8.00
2018-09-18T16:34:28.885Z,7.80
2018-09-18T16:36:57.286Z,8.03
2018-09-18T16:39:26.601Z,8.20
2018-09-18T16:41:55.724Z,7.90
2018-09-18T16:44:24.222Z,8.20
2018-09-18T16:46:52.574Z,7.53
2018-09-18T16:49:20.940Z,8.20
2018-09-18T16:51:49.301Z,8.10
2018-09-18T16:54:17.750Z,9.00
2018-09-18T16:56:46.065Z,7.77
2018-09-18T16:59:14.419Z,7.97
2018-09-18T17:01:42.782Z,7.90
2018-09-18T17:04:11.124Z,8.33
2018-09-18T17:06:39.570Z,8.37
2018-09-18T17:09:08.540Z,7.90
2018-09-18T17:11:37.286Z,8.70
2018-09-18T17:14:05.712Z,7.97
2018-09-18T17:16:34.210Z,8.13
2018-09-18T17:19:02.677Z,8.13
2018-09-18T17:21:31.068Z,8.30
2018-09-18T17:23:59.487Z,8.90
2018-09-18T17:26:27.845Z,8.90
2018-09-18T17:28:56.280Z,9.53
2018-09-18T17:31:24.565Z,10.00
2018-09-18T17:33:52.977Z,8.80
2018-09-18T17:36:21.368Z,9.53
2018-09-18T17:38:49.864Z,9.10
2018-09-18T17:41:18.249Z,8.80
2018-09-18T17:43:46.617Z,8.23
2018-09-18T17:46:15.080Z,7.27
2018-09-18T17:48:43.492Z,7.20
2018-09-18T17:51:11.837Z,6.60
2018-09-18T17:53:40.268Z,6.50
2018-09-18T17:56:08.567Z,6.60
2018-09-18T17:58:36.993Z,7.20
2018-09-18T18:01:05.354Z,7.30
2018-09-18T18:03:33.801Z,6.40
2018-09-18T18:06:02.224Z,6.37
2018-09-18T18:08:30.574Z,7.33
2018-09-18T18:10:59.055Z,7.37
2018-09-18T18:13:27.518Z,6.20
2018-09-18T18:15:55.944Z,6.53
2018-09-18T18:18:24.314Z,6.43
2018-09-18T18:20:52.776Z,6.37
2018-09-18T18:23:21.055Z,5.93
2018-09-18T18:25:49.502Z,6.40
2018-09-18T18:28:17.885Z,6.00
2018-09-18T18:30:46.256Z,5.83
2018-09-18T18:33:14.668Z,7.10
2018-09-18T18:35:43.102Z,7.23
2018-09-18T18:38:12.504Z,7.40
2018-09-18T18:40:40.903Z,12.13
2018-09-18T18:43:09.308Z,12.80
2018-09-18T18:45:37.668Z,12.10
2018-09-18T18:48:06.218Z,11.90
2018-09-18T18:50:34.483Z,13.07
2018-09-18T18:53:02.907Z,18.13
2018-09-18T18:55:31.288Z,40.83
2018-09-18T18:57:59.676Z,50.47
2018-09-18T19:00:28.197Z,12.07
2018-09-18T19:02:56.554Z,37.20
2018-09-18T19:05:25.022Z,25.47
2018-09-18T19:07:53.472Z,19.70
2018-09-18T19:10:21.971Z,10.83
2018-09-18T19:12:50.395Z,8.33
2018-09-18T19:15:18.737Z,7.07
2018-09-18T19:17:47.251Z,8.00
2018-09-18T19:20:16.007Z,7.40
2018-09-18T19:22:44.404Z,7.00
2018-09-18T19:25:12.808Z,7.50
2018-09-18T19:27:41.205Z,7.60
2018-09-18T19:30:09.584Z,6.87
2018-09-18T19:32:39.023Z,7.20
2018-09-18T19:35:07.460Z,6.33
2018-09-18T19:37:35.903Z,8.17
2018-09-18T19:40:04.356Z,26.67
2018-09-18T19:42:32.765Z,8.70
2018-09-18T19:45:01.255Z,7.83
2018-09-18T19:47:29.793Z,7.80
2018-09-18T19:49:59.060Z,7.63
2018-09-18T19:52:28.566Z,16.57
2018-09-18T19:54:57.746Z,9.53
2018-09-18T19:57:27.294Z,8.37
2018-09-18T19:59:55.691Z,7.00
2018-09-18T20:02:24.165Z,7.50
2018-09-18T20:04:52.613Z,7.67
2018-09-18T20:07:21.062Z,8.03
2018-09-18T20:09:49.456Z,7.40
2018-09-18T20:12:17.889Z,7.60
2018-09-18T20:14:46.276Z,7.20
2018-09-18T20:17:14.645Z,7.40
2018-09-18T20:19:44.884Z,7.80
2018-09-18T20:22:13.354Z,8.30
2018-09-18T20:24:41.731Z,8.17
2018-09-18T20:27:10.123Z,7.93
2018-09-18T20:29:38.656Z,7.10
2018-09-18T20:32:07.037Z,7.60
2018-09-18T20:34:35.441Z,8.13
2018-09-18T20:37:03.874Z,7.37
2018-09-18T20:39:32.270Z,7.23
2018-09-18T20:42:00.628Z,7.40
2018-09-18T20:44:29.020Z,7.50
2018-09-18T20:46:58.047Z,7.40
2018-09-18T20:49:26.342Z,7.57
2018-09-18T20:51:54.699Z,7.50
2018-09-18T20:54:23.048Z,7.63
2018-09-18T20:56:51.498Z,10.30
2018-09-18T20:59:19.876Z,42.17
2018-09-18T21:01:48.245Z,14.43
2018-09-18T21:04:16.620Z,16.40
2018-09-18T21:06:45.014Z,14.43
2018-09-18T21:09:13.372Z,13.00
2018-09-18T21:11:41.737Z,10.53
2018-09-18T21:14:10.267Z,11.40
2018-09-18T21:16:38.656Z,10.00
2018-09-18T21:19:07.183Z,14.70
2018-09-18T21:21:35.589Z,14.00
2018-09-18T21:24:03.935Z,9.30
2018-09-18T21:26:32.327Z,8.60
2018-09-18T21:29:00.712Z,8.33
2018-09-18T21:31:29.047Z,8.23
2018-09-18T21:33:57.389Z,8.57
2018-09-18T21:36:25.735Z,8.60
2018-09-18T21:38:54.084Z,8.07
2018-09-18T21:41:22.424Z,7.53
2018-09-18T21:43:50.819Z,8.40
2018-09-18T21:46:19.150Z,7.40
2018-09-18T21:48:47.583Z,7.60
2018-09-18T21:51:15.943Z,7.73
2018-09-18T21:53:44.259Z,7.23
2018-09-18T21:56:12.622Z,7.10
2018-09-18T21:58:41.017Z,7.73
2018-09-18T22:01:09.438Z,7.97
2018-09-18T22:03:37.799Z,6.60
2018-09-18T22:06:05.842Z,6.70
2018-09-18T22:08:34.237Z,7.50
2018-09-18T22:11:02.611Z,7.10
2018-09-18T22:13:30.928Z,6.70
2018-09-18T22:15:59.310Z,7.50
2018-09-18T22:18:27.641Z,6.70
2018-09-18T22:20:56.021Z,7.63
2018-09-18T22:23:24.372Z,6.93
2018-09-18T22:25:52.737Z,6.80
2018-09-18T22:28:21.080Z,7.23
2018-09-18T22:30:49.416Z,6.27
2018-09-18T22:33:17.777Z,6.27
2018-09-18T22:35:46.480Z,6.47
2018-09-18T22:38:14.832Z,6.20
2018-09-18T22:40:43.200Z,6.97
2018-09-18T22:43:11.636Z,6.30
2018-09-18T22:45:39.983Z,6.90
2018-09-18T22:48:08.373Z,6.43
2018-09-18T22:50:36.737Z,8.47
2018-09-18T22:53:05.103Z,6.57
2018-09-18T22:55:33.476Z,6.30
2018-09-18T22:58:01.837Z,6.17
2018-09-18T23:00:30.166Z,5.77
2018-09-18T23:02:58.521Z,6.27
2018-09-18T23:05:26.903Z,5.80
2018-09-18T23:07:55.265Z,6.27
2018-09-18T23:10:23.582Z,6.47
2018-09-18T23:12:51.987Z,6.10
2018-09-18T23:15:20.273Z,6.53
2018-09-18T23:17:48.646Z,6.27
2018-09-18T23:20:16.948Z,5.43
2018-09-18T23:22:45.332Z,6.10
2018-09-18T23:25:13.683Z,6.60
2018-09-18T23:27:42.016Z,6.33
2018-09-18T23:30:10.400Z,6.27
2018-09-18T23:32:38.664Z,6.90
2018-09-18T23:35:07.044Z,6.67
2018-09-18T23:37:35.376Z,6.80
2018-09-18T23:40:03.740Z,7.10
2018-09-18T23:42:32.085Z,6.57
2018-09-18T23:45:00.439Z,7.40
2018-09-18T23:47:28.733Z,6.20
2018-09-18T23:49:57.080Z,7.17
2018-09-18T23:52:25.404Z,6.80
2018-09-18T23:54:53.757Z,6.37
2018-09-18T23:57:22.103Z,6.33
2018-09-18T23:59:50.413Z,6.50
